sensor_id;sensor_type;location;lat;lon;timestamp;P1;durP1;ratioP1;P2;durP2;ratioP2
58992;SDS011;44782;0.000;0.000;2024-02-28T00:01:15;2.07;;;1.83;;
58992;SDS011;44782;0.000;0.000;2024-02-28T00:03:36;1.90;;;1.63;;
58992;SDS011;44782;0.000;0.000;2024-02-28T00:05:57;1.70;;;1.60;;
58992;SDS011;44782;0.000;0.000;2024-02-28T00:08:13;1.77;;;1.60;;
58992;SDS011;44782;0.000;0.000;2024-02-28T00:10:51;1.80;;;1.70;;
58992;SDS011;44782;0.000;0.000;2024-02-28T00:13:07;1.93;;;1.83;;
58992;SDS011;44782;0.000;0.000;2024-02-28T00:15:30;1.80;;;1.70;;
58992;SDS011;44782;0.000;0.000;2024-02-28T00:17:52;1.60;;;1.50;;
58992;SDS011;44782;0.000;0.000;2024-02-28T00:20:14;2.00;;;1.70;;
58992;SDS011;44782;0.000;0.000;2024-02-28T00:22:32;2.50;;;1.73;;
58992;SDS011;44782;0.000;0.000;2024-02-28T00:24:48;1.80;;;1.70;;
58992;SDS011;44782;0.000;0.000;2024-02-28T00:27:04;1.70;;;1.60;;
58992;SDS011;44782;0.000;0.000;2024-02-28T00:29:19;1.90;;;1.80;;
58992;SDS011;44782;0.000;0.000;2024-02-28T00:31:35;1.67;;;1.57;;
58992;SDS011;44782;0.000;0.000;2024-02-28T00:33:56;1.67;;;1.57;;
58992;SDS011;44782;0.000;0.000;2024-02-28T00:36:12;2.07;;;1.90;;
58992;SDS011;44782;0.000;0.000;2024-02-28T00:38:33;1.90;;;1.80;;
58992;SDS011;44782;0.000;0.000;2024-02-28T00:40:49;2.33;;;1.97;;
58992;SDS011;44782;0.000;0.000;2024-02-28T00:43:04;2.00;;;1.90;;
58992;SDS011;44782;0.000;0.000;2024-02-28T00:45:30;2.20;;;2.00;;
58992;SDS011;44782;0.000;0.000;2024-02-28T00:47:46;2.30;;;2.10;;
58992;SDS011;44782;0.000;0.000;2024-02-28T00:50:09;2.30;;;2.10;;
58992;SDS011;44782;0.000;0.000;2024-02-28T00:52:28;2.27;;;2.07;;
58992;SDS011;44782;0.000;0.000;2024-02-28T00:54:47;2.20;;;2.00;;
58992;SDS011;44782;0.000;0.000;2024-02-28T00:57:02;2.50;;;2.30;;
58992;SDS011;44782;0.000;0.000;2024-02-28T00:59:18;2.30;;;2.10;;
58992;SDS011;44782;0.000;0.000;2024-02-28T01:01:37;2.80;;;2.53;;
58992;SDS011;44782;0.000;0.000;2024-02-28T01:03:53;2.60;;;2.40;;
58992;SDS011;44782;0.000;0.000;2024-02-28T01:06:11;2.50;;;2.30;;
58992;SDS011;44782;0.000;0.000;2024-02-28T01:08:30;2.80;;;2.60;;
58992;SDS011;44782;0.000;0.000;2024-02-28T01:10:48;2.53;;;2.33;;
58992;SDS011;44782;0.000;0.000;2024-02-28T01:13:20;2.50;;;2.30;;
58992;SDS011;44782;0.000;0.000;2024-02-28T01:15:41;3.17;;;2.67;;
58992;SDS011;44782;0.000;0.000;2024-02-28T01:18:02;3.10;;;2.80;;
58992;SDS011;44782;0.000;0.000;2024-02-28T01:20:23;2.77;;;2.57;;
58992;SDS011;44782;0.000;0.000;2024-02-28T01:22:43;2.57;;;2.37;;
58992;SDS011;44782;0.000;0.000;2024-02-28T01:25:02;2.67;;;2.47;;
58992;SDS011;44782;0.000;0.000;2024-02-28T01:27:18;2.63;;;2.43;;
58992;SDS011;44782;0.000;0.000;2024-02-28T01:29:36;2.50;;;2.30;;
58992;SDS011;44782;0.000;0.000;2024-02-28T01:31:53;2.73;;;2.50;;
58992;SDS011;44782;0.000;0.000;2024-02-28T01:34:09;3.10;;;2.40;;
58992;SDS011;44782;0.000;0.000;2024-02-28T01:36:25;2.67;;;2.40;;
58992;SDS011;44782;0.000;0.000;2024-02-28T01:38:41;3.20;;;2.60;;
58992;SDS011;44782;0.000;0.000;2024-02-28T01:41:00;2.60;;;2.40;;
58992;SDS011;44782;0.000;0.000;2024-02-28T01:43:24;2.53;;;2.33;;
58992;SDS011;44782;0.000;0.000;2024-02-28T01:45:44;2.50;;;2.30;;
58992;SDS011;44782;0.000;0.000;2024-02-28T01:48:00;2.63;;;2.43;;
58992;SDS011;44782;0.000;0.000;2024-02-28T01:50:23;2.80;;;2.60;;
58992;SDS011;44782;0.000;0.000;2024-02-28T01:52:39;2.40;;;2.20;;
58992;SDS011;44782;0.000;0.000;2024-02-28T01:54:56;3.97;;;2.50;;
58992;SDS011;44782;0.000;0.000;2024-02-28T01:57:14;2.80;;;2.60;;
58992;SDS011;44782;0.000;0.000;2024-02-28T01:59:35;2.77;;;2.57;;
58992;SDS011;44782;0.000;0.000;2024-02-28T02:01:51;2.60;;;2.40;;
58992;SDS011;44782;0.000;0.000;2024-02-28T02:04:07;2.70;;;2.50;;
58992;SDS011;44782;0.000;0.000;2024-02-28T02:06:25;2.87;;;2.57;;
58992;SDS011;44782;0.000;0.000;2024-02-28T02:10:59;2.50;;;2.30;;
58992;SDS011;44782;0.000;0.000;2024-02-28T02:13:24;2.80;;;2.40;;
58992;SDS011;44782;0.000;0.000;2024-02-28T02:15:42;2.70;;;2.50;;
58992;SDS011;44782;0.000;0.000;2024-02-28T02:17:58;3.23;;;2.80;;
58992;SDS011;44782;0.000;0.000;2024-02-28T02:20:16;2.70;;;2.50;;
58992;SDS011;44782;0.000;0.000;2024-02-28T02:22:34;2.60;;;2.40;;
58992;SDS011;44782;0.000;0.000;2024-02-28T02:24:55;2.50;;;2.30;;
58992;SDS011;44782;0.000;0.000;2024-02-28T02:27:11;2.80;;;2.60;;
58992;SDS011;44782;0.000;0.000;2024-02-28T02:29:32;3.20;;;2.90;;
58992;SDS011;44782;0.000;0.000;2024-02-28T02:31:47;3.03;;;2.83;;
58992;SDS011;44782;0.000;0.000;2024-02-28T02:34:06;2.80;;;2.60;;
58992;SDS011;44782;0.000;0.000;2024-02-28T02:36:22;2.83;;;2.63;;
58992;SDS011;44782;0.000;0.000;2024-02-28T02:38:48;2.83;;;2.53;;
58992;SDS011;44782;0.000;0.000;2024-02-28T02:41:12;2.97;;;2.60;;
58992;SDS011;44782;0.000;0.000;2024-02-28T02:43:28;2.57;;;2.37;;
58992;SDS011;44782;0.000;0.000;2024-02-28T02:45:47;2.40;;;2.20;;
58992;SDS011;44782;0.000;0.000;2024-02-28T02:48:08;2.20;;;2.10;;
58992;SDS011;44782;0.000;0.000;2024-02-28T02:50:27;2.27;;;2.07;;
58992;SDS011;44782;0.000;0.000;2024-02-28T02:52:43;2.30;;;2.10;;
58992;SDS011;44782;0.000;0.000;2024-02-28T02:55:01;2.43;;;2.23;;
58992;SDS011;44782;0.000;0.000;2024-02-28T02:57:23;2.40;;;2.20;;
58992;SDS011;44782;0.000;0.000;2024-02-28T02:59:41;2.43;;;2.00;;
58992;SDS011;44782;0.000;0.000;2024-02-28T03:02:00;2.43;;;2.23;;
58992;SDS011;44782;0.000;0.000;2024-02-28T03:04:27;2.10;;;2.00;;
58992;SDS011;44782;0.000;0.000;2024-02-28T03:06:45;1.80;;;1.70;;
58992;SDS011;44782;0.000;0.000;2024-02-28T03:09:10;2.07;;;1.97;;
58992;SDS011;44782;0.000;0.000;2024-02-28T03:11:28;1.90;;;1.80;;
58992;SDS011;44782;0.000;0.000;2024-02-28T03:13:49;2.00;;;1.90;;
58992;SDS011;44782;0.000;0.000;2024-02-28T03:16:18;1.90;;;1.80;;
58992;SDS011;44782;0.000;0.000;2024-02-28T03:21:05;1.80;;;1.70;;
58992;SDS011;44782;0.000;0.000;2024-02-28T03:23:21;1.70;;;1.60;;
58992;SDS011;44782;0.000;0.000;2024-02-28T03:25:42;1.60;;;1.50;;
58992;SDS011;44782;0.000;0.000;2024-02-28T03:28:07;2.00;;;1.90;;
58992;SDS011;44782;0.000;0.000;2024-02-28T03:30:25;1.90;;;1.80;;
58992;SDS011;44782;0.000;0.000;2024-02-28T03:32:43;1.80;;;1.70;;
58992;SDS011;44782;0.000;0.000;2024-02-28T03:35:04;1.60;;;1.50;;
58992;SDS011;44782;0.000;0.000;2024-02-28T03:37:23;1.87;;;1.70;;
58992;SDS011;44782;0.000;0.000;2024-02-28T03:39:47;1.70;;;1.60;;
58992;SDS011;44782;0.000;0.000;2024-02-28T03:42:03;1.90;;;1.80;;
58992;SDS011;44782;0.000;0.000;2024-02-28T03:44:25;2.00;;;1.90;;
58992;SDS011;44782;0.000;0.000;2024-02-28T03:46:41;1.80;;;1.70;;
58992;SDS011;44782;0.000;0.000;2024-02-28T03:48:57;1.80;;;1.70;;
58992;SDS011;44782;0.000;0.000;2024-02-28T03:51:12;1.90;;;1.80;;
58992;SDS011;44782;0.000;0.000;2024-02-28T03:53:28;1.70;;;1.60;;
58992;SDS011;44782;0.000;0.000;2024-02-28T03:55:44;1.80;;;1.70;;
58992;SDS011;44782;0.000;0.000;2024-02-28T03:58:00;1.90;;;1.80;;
58992;SDS011;44782;0.000;0.000;2024-02-28T04:00:15;1.70;;;1.60;;
58992;SDS011;44782;0.000;0.000;2024-02-28T04:02:31;1.80;;;1.70;;
58992;SDS011;44782;0.000;0.000;2024-02-28T04:04:47;1.63;;;1.53;;
58992;SDS011;44782;0.000;0.000;2024-02-28T04:07:02;1.70;;;1.60;;
58992;SDS011;44782;0.000;0.000;2024-02-28T04:09:18;2.20;;;2.00;;
58992;SDS011;44782;0.000;0.000;2024-02-28T04:11:36;2.00;;;1.90;;
58992;SDS011;44782;0.000;0.000;2024-02-28T04:13:53;1.70;;;1.60;;
58992;SDS011;44782;0.000;0.000;2024-02-28T04:16:09;1.70;;;1.60;;
58992;SDS011;44782;0.000;0.000;2024-02-28T04:18:25;2.00;;;1.90;;
58992;SDS011;44782;0.000;0.000;2024-02-28T04:20:40;1.80;;;1.70;;
58992;SDS011;44782;0.000;0.000;2024-02-28T04:22:56;2.07;;;1.90;;
58992;SDS011;44782;0.000;0.000;2024-02-28T04:25:12;1.80;;;1.70;;
58992;SDS011;44782;0.000;0.000;2024-02-28T04:27:27;1.97;;;1.87;;
58992;SDS011;44782;0.000;0.000;2024-02-28T04:29:43;2.10;;;2.00;;
58992;SDS011;44782;0.000;0.000;2024-02-28T04:31:58;1.83;;;1.73;;
58992;SDS011;44782;0.000;0.000;2024-02-28T04:34:14;3.20;;;1.93;;
58992;SDS011;44782;0.000;0.000;2024-02-28T04:36:30;3.60;;;1.87;;
58992;SDS011;44782;0.000;0.000;2024-02-28T04:38:45;2.30;;;2.10;;
58992;SDS011;44782;0.000;0.000;2024-02-28T04:41:01;2.13;;;2.00;;
58992;SDS011;44782;0.000;0.000;2024-02-28T04:43:17;2.03;;;1.83;;
58992;SDS011;44782;0.000;0.000;2024-02-28T04:45:32;2.03;;;1.83;;
58992;SDS011;44782;0.000;0.000;2024-02-28T04:47:48;1.90;;;1.80;;
58992;SDS011;44782;0.000;0.000;2024-02-28T04:50:06;2.13;;;1.80;;
58992;SDS011;44782;0.000;0.000;2024-02-28T04:52:24;2.03;;;1.93;;
58992;SDS011;44782;0.000;0.000;2024-02-28T04:54:40;1.80;;;1.70;;
58992;SDS011;44782;0.000;0.000;2024-02-28T04:56:56;1.77;;;1.67;;
58992;SDS011;44782;0.000;0.000;2024-02-28T04:59:11;1.90;;;1.80;;
58992;SDS011;44782;0.000;0.000;2024-02-28T05:01:30;2.00;;;1.90;;
58992;SDS011;44782;0.000;0.000;2024-02-28T05:03:46;2.03;;;1.90;;
58992;SDS011;44782;0.000;0.000;2024-02-28T05:06:02;1.90;;;1.80;;
58992;SDS011;44782;0.000;0.000;2024-02-28T05:08:19;1.87;;;1.77;;
58992;SDS011;44782;0.000;0.000;2024-02-28T05:10:35;1.80;;;1.70;;
58992;SDS011;44782;0.000;0.000;2024-02-28T05:12:51;1.70;;;1.60;;
58992;SDS011;44782;0.000;0.000;2024-02-28T05:15:07;1.93;;;1.83;;
58992;SDS011;44782;0.000;0.000;2024-02-28T05:17:22;1.90;;;1.80;;
58992;SDS011;44782;0.000;0.000;2024-02-28T05:19:38;1.77;;;1.67;;
58992;SDS011;44782;0.000;0.000;2024-02-28T05:21:54;1.83;;;1.73;;
58992;SDS011;44782;0.000;0.000;2024-02-28T05:24:10;1.90;;;1.80;;
58992;SDS011;44782;0.000;0.000;2024-02-28T05:26:26;1.80;;;1.70;;
58992;SDS011;44782;0.000;0.000;2024-02-28T05:28:42;1.80;;;1.70;;
58992;SDS011;44782;0.000;0.000;2024-02-28T05:30:57;1.90;;;1.80;;
58992;SDS011;44782;0.000;0.000;2024-02-28T05:33:14;1.70;;;1.60;;
58992;SDS011;44782;0.000;0.000;2024-02-28T05:35:30;1.80;;;1.70;;
58992;SDS011;44782;0.000;0.000;2024-02-28T05:37:46;1.80;;;1.70;;
58992;SDS011;44782;0.000;0.000;2024-02-28T05:40:02;2.30;;;2.10;;
58992;SDS011;44782;0.000;0.000;2024-02-28T05:42:19;1.90;;;1.80;;
58992;SDS011;44782;0.000;0.000;2024-02-28T05:44:37;1.70;;;1.60;;
58992;SDS011;44782;0.000;0.000;2024-02-28T05:46:52;1.50;;;1.40;;
58992;SDS011;44782;0.000;0.000;2024-02-28T05:49:08;2.33;;;1.43;;
58992;SDS011;44782;0.000;0.000;2024-02-28T05:51:24;1.77;;;1.67;;
58992;SDS011;44782;0.000;0.000;2024-02-28T05:53:40;1.60;;;1.50;;
58992;SDS011;44782;0.000;0.000;2024-02-28T05:55:57;1.60;;;1.50;;
58992;SDS011;44782;0.000;0.000;2024-02-28T05:58:13;1.80;;;1.70;;
58992;SDS011;44782;0.000;0.000;2024-02-28T06:00:30;1.50;;;1.40;;
58992;SDS011;44782;0.000;0.000;2024-02-28T06:02:46;1.57;;;1.47;;
58992;SDS011;44782;0.000;0.000;2024-02-28T06:05:02;1.57;;;1.47;;
58992;SDS011;44782;0.000;0.000;2024-02-28T06:07:18;1.70;;;1.60;;
58992;SDS011;44782;0.000;0.000;2024-02-28T06:09:33;1.50;;;1.40;;
58992;SDS011;44782;0.000;0.000;2024-02-28T06:11:49;1.40;;;1.30;;
58992;SDS011;44782;0.000;0.000;2024-02-28T06:14:05;1.63;;;1.53;;
58992;SDS011;44782;0.000;0.000;2024-02-28T06:16:21;1.73;;;1.63;;
58992;SDS011;44782;0.000;0.000;2024-02-28T06:18:36;1.63;;;1.53;;
58992;SDS011;44782;0.000;0.000;2024-02-28T06:20:53;1.80;;;1.70;;
58992;SDS011;44782;0.000;0.000;2024-02-28T06:23:11;1.80;;;1.70;;
58992;SDS011;44782;0.000;0.000;2024-02-28T06:25:27;1.80;;;1.70;;
58992;SDS011;44782;0.000;0.000;2024-02-28T06:27:43;1.70;;;1.60;;
58992;SDS011;44782;0.000;0.000;2024-02-28T06:29:59;1.90;;;1.80;;
58992;SDS011;44782;0.000;0.000;2024-02-28T06:32:14;1.90;;;1.55;;
58992;SDS011;44782;0.000;0.000;2024-02-28T06:34:30;1.63;;;1.52;;
58992;SDS011;44782;0.000;0.000;2024-02-28T06:36:46;1.90;;;1.80;;
58992;SDS011;44782;0.000;0.000;2024-02-28T06:39:01;1.85;;;1.70;;
58992;SDS011;44782;0.000;0.000;2024-02-28T06:41:18;1.63;;;1.52;;
58992;SDS011;44782;0.000;0.000;2024-02-28T06:43:33;1.70;;;1.60;;
58992;SDS011;44782;0.000;0.000;2024-02-28T06:45:53;1.92;;;1.70;;
58992;SDS011;44782;0.000;0.000;2024-02-28T06:48:08;1.67;;;1.58;;
58992;SDS011;44782;0.000;0.000;2024-02-28T06:50:24;1.80;;;1.70;;
58992;SDS011;44782;0.000;0.000;2024-02-28T06:52:41;1.90;;;1.80;;
58992;SDS011;44782;0.000;0.000;2024-02-28T06:54:56;2.00;;;1.80;;
58992;SDS011;44782;0.000;0.000;2024-02-28T06:57:13;1.95;;;1.85;;
58992;SDS011;44782;0.000;0.000;2024-02-28T06:59:28;2.08;;;1.98;;
58992;SDS011;44782;0.000;0.000;2024-02-28T07:01:45;2.05;;;1.88;;
58992;SDS011;44782;0.000;0.000;2024-02-28T07:04:00;2.00;;;1.80;;
58992;SDS011;44782;0.000;0.000;2024-02-28T07:06:16;2.10;;;1.88;;
58992;SDS011;44782;0.000;0.000;2024-02-28T07:08:32;2.13;;;2.03;;
58992;SDS011;44782;0.000;0.000;2024-02-28T07:10:47;2.00;;;1.90;;
58992;SDS011;44782;0.000;0.000;2024-02-28T07:13:08;2.50;;;2.23;;
58992;SDS011;44782;0.000;0.000;2024-02-28T07:15:25;2.43;;;2.20;;
58992;SDS011;44782;0.000;0.000;2024-02-28T07:17:40;2.50;;;2.30;;
58992;SDS011;44782;0.000;0.000;2024-02-28T07:19:56;2.17;;;1.98;;
58992;SDS011;44782;0.000;0.000;2024-02-28T07:22:12;2.07;;;1.97;;
58992;SDS011;44782;0.000;0.000;2024-02-28T07:24:28;2.00;;;1.90;;
58992;SDS011;44782;0.000;0.000;2024-02-28T07:26:45;2.00;;;1.90;;
58992;SDS011;44782;0.000;0.000;2024-02-28T07:29:01;2.50;;;2.30;;
58992;SDS011;44782;0.000;0.000;2024-02-28T07:31:16;2.03;;;1.93;;
58992;SDS011;44782;0.000;0.000;2024-02-28T07:33:32;2.00;;;1.90;;
58992;SDS011;44782;0.000;0.000;2024-02-28T07:35:48;2.60;;;2.40;;
58992;SDS011;44782;0.000;0.000;2024-02-28T07:38:06;2.17;;;1.97;;
58992;SDS011;44782;0.000;0.000;2024-02-28T07:40:24;2.03;;;1.90;;
58992;SDS011;44782;0.000;0.000;2024-02-28T07:42:42;2.10;;;1.90;;
58992;SDS011;44782;0.000;0.000;2024-02-28T07:44:58;2.23;;;2.10;;
58992;SDS011;44782;0.000;0.000;2024-02-28T07:47:13;2.03;;;1.90;;
58992;SDS011;44782;0.000;0.000;2024-02-28T07:49:29;2.30;;;2.10;;
58992;SDS011;44782;0.000;0.000;2024-02-28T07:51:45;2.50;;;2.30;;
58992;SDS011;44782;0.000;0.000;2024-02-28T07:54:04;2.10;;;2.00;;
58992;SDS011;44782;0.000;0.000;2024-02-28T07:56:20;2.30;;;2.10;;
58992;SDS011;44782;0.000;0.000;2024-02-28T07:58:36;2.23;;;2.10;;
58992;SDS011;44782;0.000;0.000;2024-02-28T08:00:51;2.40;;;2.20;;
58992;SDS011;44782;0.000;0.000;2024-02-28T08:03:10;2.50;;;2.30;;
58992;SDS011;44782;0.000;0.000;2024-02-28T08:05:25;2.30;;;2.20;;
58992;SDS011;44782;0.000;0.000;2024-02-28T08:07:41;2.43;;;2.23;;
58992;SDS011;44782;0.000;0.000;2024-02-28T08:09:57;2.23;;;2.13;;
58992;SDS011;44782;0.000;0.000;2024-02-28T08:12:13;2.50;;;2.30;;
58992;SDS011;44782;0.000;0.000;2024-02-28T08:14:28;2.50;;;2.30;;
58992;SDS011;44782;0.000;0.000;2024-02-28T08:16:44;2.50;;;2.30;;
58992;SDS011;44782;0.000;0.000;2024-02-28T08:18:59;2.20;;;2.00;;
58992;SDS011;44782;0.000;0.000;2024-02-28T08:21:15;2.50;;;2.30;;
58992;SDS011;44782;0.000;0.000;2024-02-28T08:23:31;2.60;;;2.40;;
58992;SDS011;44782;0.000;0.000;2024-02-28T08:25:46;2.50;;;2.30;;
58992;SDS011;44782;0.000;0.000;2024-02-28T08:28:02;2.70;;;2.50;;
58992;SDS011;44782;0.000;0.000;2024-02-28T08:30:18;2.50;;;2.30;;
58992;SDS011;44782;0.000;0.000;2024-02-28T08:32:34;2.60;;;2.40;;
58992;SDS011;44782;0.000;0.000;2024-02-28T08:34:49;2.70;;;2.50;;
58992;SDS011;44782;0.000;0.000;2024-02-28T08:37:05;2.67;;;2.47;;
58992;SDS011;44782;0.000;0.000;2024-02-28T08:39:21;3.30;;;2.83;;
58992;SDS011;44782;0.000;0.000;2024-02-28T08:41:38;2.87;;;2.60;;
58992;SDS011;44782;0.000;0.000;2024-02-28T08:43:53;2.73;;;2.53;;
58992;SDS011;44782;0.000;0.000;2024-02-28T08:46:13;3.20;;;2.90;;
58992;SDS011;44782;0.000;0.000;2024-02-28T08:48:29;2.90;;;2.70;;
58992;SDS011;44782;0.000;0.000;2024-02-28T08:50:45;3.00;;;2.80;;
58992;SDS011;44782;0.000;0.000;2024-02-28T08:53:01;2.87;;;2.67;;
58992;SDS011;44782;0.000;0.000;2024-02-28T08:55:18;2.77;;;2.57;;
58992;SDS011;44782;0.000;0.000;2024-02-28T08:57:35;2.60;;;2.40;;
58992;SDS011;44782;0.000;0.000;2024-02-28T08:59:51;3.87;;;2.27;;
58992;SDS011;44782;0.000;0.000;2024-02-28T09:02:06;2.80;;;2.60;;
58992;SDS011;44782;0.000;0.000;2024-02-28T09:04:22;3.00;;;2.77;;
58992;SDS011;44782;0.000;0.000;2024-02-28T09:06:38;2.60;;;2.40;;
58992;SDS011;44782;0.000;0.000;2024-02-28T09:08:53;2.63;;;2.43;;
58992;SDS011;44782;0.000;0.000;2024-02-28T09:11:09;3.10;;;2.80;;
58992;SDS011;44782;0.000;0.000;2024-02-28T09:13:25;3.63;;;2.57;;
58992;SDS011;44782;0.000;0.000;2024-02-28T09:15:41;2.93;;;2.50;;
58992;SDS011;44782;0.000;0.000;2024-02-28T09:17:56;2.83;;;2.63;;
58992;SDS011;44782;0.000;0.000;2024-02-28T09:20:12;2.97;;;2.57;;
58992;SDS011;44782;0.000;0.000;2024-02-28T09:22:27;2.70;;;2.43;;
58992;SDS011;44782;0.000;0.000;2024-02-28T09:24:43;2.83;;;2.60;;
58992;SDS011;44782;0.000;0.000;2024-02-28T09:26:59;3.17;;;2.50;;
58992;SDS011;44782;0.000;0.000;2024-02-28T09:29:14;3.43;;;2.60;;
58992;SDS011;44782;0.000;0.000;2024-02-28T09:31:32;2.93;;;2.50;;
58992;SDS011;44782;0.000;0.000;2024-02-28T09:33:47;2.73;;;2.47;;
58992;SDS011;44782;0.000;0.000;2024-02-28T09:36:04;3.00;;;2.80;;
58992;SDS011;44782;0.000;0.000;2024-02-28T09:38:20;2.63;;;2.43;;
58992;SDS011;44782;0.000;0.000;2024-02-28T09:40:35;2.90;;;2.60;;
58992;SDS011;44782;0.000;0.000;2024-02-28T09:42:57;2.90;;;2.60;;
58992;SDS011;44782;0.000;0.000;2024-02-28T09:45:18;2.50;;;2.27;;
58992;SDS011;44782;0.000;0.000;2024-02-28T09:47:36;2.80;;;2.60;;
58992;SDS011;44782;0.000;0.000;2024-02-28T09:49:52;2.73;;;2.50;;
58992;SDS011;44782;0.000;0.000;2024-02-28T09:52:10;2.60;;;2.20;;
58992;SDS011;44782;0.000;0.000;2024-02-28T09:54:26;2.60;;;2.40;;
58992;SDS011;44782;0.000;0.000;2024-02-28T09:56:41;2.73;;;2.10;;
58992;SDS011;44782;0.000;0.000;2024-02-28T09:58:57;2.40;;;2.20;;
58992;SDS011;44782;0.000;0.000;2024-02-28T10:01:14;2.50;;;2.30;;
58992;SDS011;44782;0.000;0.000;2024-02-28T10:03:32;2.23;;;2.03;;
58992;SDS011;44782;0.000;0.000;2024-02-28T10:05:48;2.83;;;2.30;;
58992;SDS011;44782;0.000;0.000;2024-02-28T10:08:04;2.70;;;2.50;;
58992;SDS011;44782;0.000;0.000;2024-02-28T10:10:21;2.67;;;2.20;;
58992;SDS011;44782;0.000;0.000;2024-02-28T10:12:41;2.43;;;2.23;;
58992;SDS011;44782;0.000;0.000;2024-02-28T10:14:57;2.30;;;2.10;;
58992;SDS011;44782;0.000;0.000;2024-02-28T10:17:15;2.30;;;2.10;;
58992;SDS011;44782;0.000;0.000;2024-02-28T10:19:31;2.23;;;1.90;;
58992;SDS011;44782;0.000;0.000;2024-02-28T10:21:46;2.20;;;2.00;;
58992;SDS011;44782;0.000;0.000;2024-02-28T10:24:02;2.27;;;2.00;;
58992;SDS011;44782;0.000;0.000;2024-02-28T10:26:18;3.40;;;2.17;;
58992;SDS011;44782;0.000;0.000;2024-02-28T10:28:36;2.80;;;2.17;;
58992;SDS011;44782;0.000;0.000;2024-02-28T10:30:55;1.90;;;1.80;;
58992;SDS011;44782;0.000;0.000;2024-02-28T10:33:11;2.83;;;2.00;;
58992;SDS011;44782;0.000;0.000;2024-02-28T10:35:30;2.20;;;1.97;;
58992;SDS011;44782;0.000;0.000;2024-02-28T10:37:46;2.00;;;1.80;;
58992;SDS011;44782;0.000;0.000;2024-02-28T10:40:05;2.20;;;2.00;;
58992;SDS011;44782;0.000;0.000;2024-02-28T10:42:21;2.23;;;2.03;;
58992;SDS011;44782;0.000;0.000;2024-02-28T10:44:41;2.10;;;1.80;;
58992;SDS011;44782;0.000;0.000;2024-02-28T10:46:58;2.00;;;1.90;;
58992;SDS011;44782;0.000;0.000;2024-02-28T10:49:15;1.90;;;1.80;;
58992;SDS011;44782;0.000;0.000;2024-02-28T10:51:32;2.03;;;1.83;;
58992;SDS011;44782;0.000;0.000;2024-02-28T10:53:50;2.20;;;1.83;;
58992;SDS011;44782;0.000;0.000;2024-02-28T10:56:22;1.80;;;1.70;;
58992;SDS011;44782;0.000;0.000;2024-02-28T10:58:42;2.10;;;1.90;;
58992;SDS011;44782;0.000;0.000;2024-02-28T11:01:06;1.70;;;1.60;;
58992;SDS011;44782;0.000;0.000;2024-02-28T11:03:23;1.70;;;1.60;;
58992;SDS011;44782;0.000;0.000;2024-02-28T11:05:39;1.90;;;1.80;;
58992;SDS011;44782;0.000;0.000;2024-02-28T11:07:56;1.73;;;1.63;;
58992;SDS011;44782;0.000;0.000;2024-02-28T11:10:11;1.80;;;1.70;;
58992;SDS011;44782;0.000;0.000;2024-02-28T11:12:28;2.23;;;1.83;;
58992;SDS011;44782;0.000;0.000;2024-02-28T11:14:44;1.80;;;1.70;;
58992;SDS011;44782;0.000;0.000;2024-02-28T11:17:10;2.13;;;1.90;;
58992;SDS011;44782;0.000;0.000;2024-02-28T11:19:27;1.77;;;1.67;;
58992;SDS011;44782;0.000;0.000;2024-02-28T11:21:45;1.60;;;1.50;;
58992;SDS011;44782;0.000;0.000;2024-02-28T11:24:00;1.53;;;1.43;;
58992;SDS011;44782;0.000;0.000;2024-02-28T11:26:16;1.87;;;1.70;;
58992;SDS011;44782;0.000;0.000;2024-02-28T11:28:33;1.90;;;1.70;;
58992;SDS011;44782;0.000;0.000;2024-02-28T11:30:48;1.80;;;1.70;;
58992;SDS011;44782;0.000;0.000;2024-02-28T11:33:04;1.70;;;1.60;;
58992;SDS011;44782;0.000;0.000;2024-02-28T11:35:20;1.80;;;1.70;;
58992;SDS011;44782;0.000;0.000;2024-02-28T11:37:36;1.90;;;1.80;;
58992;SDS011;44782;0.000;0.000;2024-02-28T11:39:57;1.70;;;1.57;;
58992;SDS011;44782;0.000;0.000;2024-02-28T11:42:14;1.50;;;1.40;;
58992;SDS011;44782;0.000;0.000;2024-02-28T11:44:30;1.63;;;1.53;;
58992;SDS011;44782;0.000;0.000;2024-02-28T11:46:49;1.90;;;1.70;;
58992;SDS011;44782;0.000;0.000;2024-02-28T11:49:05;2.00;;;1.83;;
58992;SDS011;44782;0.000;0.000;2024-02-28T11:51:21;1.83;;;1.73;;
58992;SDS011;44782;0.000;0.000;2024-02-28T11:53:36;2.07;;;1.80;;
58992;SDS011;44782;0.000;0.000;2024-02-28T11:55:52;1.60;;;1.50;;
58992;SDS011;44782;0.000;0.000;2024-02-28T11:58:10;1.63;;;1.53;;
58992;SDS011;44782;0.000;0.000;2024-02-28T12:00:26;1.50;;;1.40;;
58992;SDS011;44782;0.000;0.000;2024-02-28T12:02:41;1.60;;;1.50;;
58992;SDS011;44782;0.000;0.000;2024-02-28T12:05:00;1.60;;;1.50;;
58992;SDS011;44782;0.000;0.000;2024-02-28T12:07:16;1.70;;;1.60;;
58992;SDS011;44782;0.000;0.000;2024-02-28T12:09:32;1.70;;;1.60;;
58992;SDS011;44782;0.000;0.000;2024-02-28T12:11:47;2.03;;;1.47;;
58992;SDS011;44782;0.000;0.000;2024-02-28T12:14:03;1.87;;;1.77;;
58992;SDS011;44782;0.000;0.000;2024-02-28T12:16:22;2.03;;;1.50;;
58992;SDS011;44782;0.000;0.000;2024-02-28T12:18:42;1.60;;;1.50;;
58992;SDS011;44782;0.000;0.000;2024-02-28T12:20:58;1.67;;;1.50;;
58992;SDS011;44782;0.000;0.000;2024-02-28T12:23:13;1.50;;;1.40;;
58992;SDS011;44782;0.000;0.000;2024-02-28T12:25:29;1.60;;;1.50;;
58992;SDS011;44782;0.000;0.000;2024-02-28T12:27:44;1.40;;;1.30;;
58992;SDS011;44782;0.000;0.000;2024-02-28T12:30:00;1.40;;;1.30;;
58992;SDS011;44782;0.000;0.000;2024-02-28T12:32:16;1.40;;;1.30;;
58992;SDS011;44782;0.000;0.000;2024-02-28T12:34:32;1.67;;;1.30;;
58992;SDS011;44782;0.000;0.000;2024-02-28T12:36:48;1.37;;;1.23;;
58992;SDS011;44782;0.000;0.000;2024-02-28T12:39:04;1.60;;;1.50;;
58992;SDS011;44782;0.000;0.000;2024-02-28T12:41:21;1.50;;;1.40;;
58992;SDS011;44782;0.000;0.000;2024-02-28T12:43:36;1.40;;;1.30;;
58992;SDS011;44782;0.000;0.000;2024-02-28T12:45:54;1.50;;;1.40;;
58992;SDS011;44782;0.000;0.000;2024-02-28T12:48:10;1.60;;;1.50;;
58992;SDS011;44782;0.000;0.000;2024-02-28T12:50:25;1.50;;;1.40;;
58992;SDS011;44782;0.000;0.000;2024-02-28T12:52:41;1.47;;;1.37;;
58992;SDS011;44782;0.000;0.000;2024-02-28T12:54:56;1.60;;;1.50;;
58992;SDS011;44782;0.000;0.000;2024-02-28T12:57:12;1.50;;;1.40;;
58992;SDS011;44782;0.000;0.000;2024-02-28T12:59:31;1.53;;;1.43;;
58992;SDS011;44782;0.000;0.000;2024-02-28T13:01:48;1.50;;;1.40;;
58992;SDS011;44782;0.000;0.000;2024-02-28T13:04:04;1.50;;;1.40;;
58992;SDS011;44782;0.000;0.000;2024-02-28T13:06:20;1.40;;;1.30;;
58992;SDS011;44782;0.000;0.000;2024-02-28T13:08:35;1.97;;;1.60;;
58992;SDS011;44782;0.000;0.000;2024-02-28T13:10:51;1.60;;;1.50;;
58992;SDS011;44782;0.000;0.000;2024-02-28T13:13:07;1.50;;;1.40;;
58992;SDS011;44782;0.000;0.000;2024-02-28T13:15:22;1.63;;;1.47;;
58992;SDS011;44782;0.000;0.000;2024-02-28T13:17:38;1.70;;;1.40;;
58992;SDS011;44782;0.000;0.000;2024-02-28T13:19:57;1.60;;;1.50;;
58992;SDS011;44782;0.000;0.000;2024-02-28T13:22:12;1.43;;;1.33;;
58992;SDS011;44782;0.000;0.000;2024-02-28T13:24:28;1.37;;;1.30;;
58992;SDS011;44782;0.000;0.000;2024-02-28T13:26:43;1.50;;;1.40;;
58992;SDS011;44782;0.000;0.000;2024-02-28T13:28:59;1.70;;;1.37;;
58992;SDS011;44782;0.000;0.000;2024-02-28T13:31:15;1.40;;;1.30;;
58992;SDS011;44782;0.000;0.000;2024-02-28T13:33:31;1.47;;;1.37;;
58992;SDS011;44782;0.000;0.000;2024-02-28T13:35:47;1.53;;;1.43;;
58992;SDS011;44782;0.000;0.000;2024-02-28T13:38:02;1.40;;;1.30;;
58992;SDS011;44782;0.000;0.000;2024-02-28T13:40:18;1.77;;;1.43;;
58992;SDS011;44782;0.000;0.000;2024-02-28T13:42:34;1.57;;;1.47;;
58992;SDS011;44782;0.000;0.000;2024-02-28T13:44:50;1.67;;;1.50;;
58992;SDS011;44782;0.000;0.000;2024-02-28T13:47:06;1.30;;;1.20;;
58992;SDS011;44782;0.000;0.000;2024-02-28T13:49:21;1.40;;;1.30;;
58992;SDS011;44782;0.000;0.000;2024-02-28T13:51:37;1.50;;;1.40;;
58992;SDS011;44782;0.000;0.000;2024-02-28T13:53:53;1.40;;;1.30;;
58992;SDS011;44782;0.000;0.000;2024-02-28T13:56:09;1.50;;;1.40;;
58992;SDS011;44782;0.000;0.000;2024-02-28T13:58:24;1.50;;;1.40;;
58992;SDS011;44782;0.000;0.000;2024-02-28T14:00:40;1.40;;;1.30;;
58992;SDS011;44782;0.000;0.000;2024-02-28T14:02:56;1.60;;;1.50;;